sensor_id;sensor_type;location;lat;lon;timestamp;P1;durP1;ratioP1;P2;durP2;ratioP2
9898;SDS011;4988;49.238;6.698;2022-10-17T00:02:13;15.83;;;7.90;;
9898;SDS011;4988;49.238;6.698;2022-10-17T00:04:38;16.47;;;6.97;;
9898;SDS011;4988;49.238;6.698;2022-10-17T00:07:03;15.70;;;7.63;;
9898;SDS011;4988;49.238;6.698;2022-10-17T00:09:29;14.83;;;7.77;;
9898;SDS011;4988;49.238;6.698;2022-10-17T00:11:54;14.37;;;7.87;;
9898;SDS011;4988;49.238;6.698;2022-10-17T00:14:19;14.53;;;7.73;;
9898;SDS011;4988;49.238;6.698;2022-10-17T00:16:44;15.77;;;7.63;;
9898;SDS011;4988;49.238;6.698;2022-10-17T00:19:10;17.37;;;7.27;;
9898;SDS011;4988;49.238;6.698;2022-10-17T00:21:35;16.57;;;7.47;;
9898;SDS011;4988;49.238;6.698;2022-10-17T00:24:00;16.83;;;8.53;;
9898;SDS011;4988;49.238;6.698;2022-10-17T00:26:26;14.87;;;7.20;;
9898;SDS011;4988;49.238;6.698;2022-10-17T00:28:53;12.27;;;7.20;;
9898;SDS011;4988;49.238;6.698;2022-10-17T00:31:19;11.33;;;6.97;;
9898;SDS011;4988;49.238;6.698;2022-10-17T00:33:46;11.20;;;6.57;;
9898;SDS011;4988;49.238;6.698;2022-10-17T00:36:13;16.67;;;7.50;;
9898;SDS011;4988;49.238;6.698;2022-10-17T00:38:40;12.30;;;7.07;;
9898;SDS011;4988;49.238;6.698;2022-10-17T00:41:08;10.37;;;6.77;;
9898;SDS011;4988;49.238;6.698;2022-10-17T00:46:29;12.83;;;7.27;;
9898;SDS011;4988;49.238;6.698;2022-10-17T00:48:56;16.73;;;7.30;;
9898;SDS011;4988;49.238;6.698;2022-10-17T00:51:27;17.50;;;7.53;;
9898;SDS011;4988;49.238;6.698;2022-10-17T00:53:57;16.17;;;7.40;;
9898;SDS011;4988;49.238;6.698;2022-10-17T00:56:24;11.70;;;7.03;;
9898;SDS011;4988;49.238;6.698;2022-10-17T00:58:50;18.90;;;7.50;;
9898;SDS011;4988;49.238;6.698;2022-10-17T01:01:16;11.97;;;7.20;;
9898;SDS011;4988;49.238;6.698;2022-10-17T01:03:41;12.23;;;6.87;;
9898;SDS011;4988;49.238;6.698;2022-10-17T01:06:07;12.73;;;7.00;;
9898;SDS011;4988;49.238;6.698;2022-10-17T01:08:32;16.50;;;7.17;;
9898;SDS011;4988;49.238;6.698;2022-10-17T01:14:20;12.67;;;7.30;;
9898;SDS011;4988;49.238;6.698;2022-10-17T01:17:04;13.13;;;7.00;;
9898;SDS011;4988;49.238;6.698;2022-10-17T01:19:43;23.03;;;8.00;;
9898;SDS011;4988;49.238;6.698;2022-10-17T01:22:21;14.10;;;6.77;;
9898;SDS011;4988;49.238;6.698;2022-10-17T01:27:51;16.80;;;6.70;;
9898;SDS011;4988;49.238;6.698;2022-10-17T01:38:10;11.23;;;6.80;;
9898;SDS011;4988;49.238;6.698;2022-10-17T01:40:43;14.27;;;7.27;;
9898;SDS011;4988;49.238;6.698;2022-10-17T01:43:22;16.13;;;6.80;;
9898;SDS011;4988;49.238;6.698;2022-10-17T01:46:10;13.97;;;6.60;;
9898;SDS011;4988;49.238;6.698;2022-10-17T01:48:42;12.30;;;6.60;;
9898;SDS011;4988;49.238;6.698;2022-10-17T01:51:12;14.37;;;6.77;;
9898;SDS011;4988;49.238;6.698;2022-10-17T01:53:45;12.83;;;6.63;;
9898;SDS011;4988;49.238;6.698;2022-10-17T01:56:16;15.67;;;7.07;;
9898;SDS011;4988;49.238;6.698;2022-10-17T01:58:45;12.87;;;7.03;;
9898;SDS011;4988;49.238;6.698;2022-10-17T02:01:15;15.83;;;7.03;;
9898;SDS011;4988;49.238;6.698;2022-10-17T02:03:42;17.40;;;7.20;;
9898;SDS011;4988;49.238;6.698;2022-10-17T02:06:10;16.60;;;7.70;;
9898;SDS011;4988;49.238;6.698;2022-10-17T02:08:40;16.83;;;7.20;;
9898;SDS011;4988;49.238;6.698;2022-10-17T02:11:17;11.93;;;6.73;;
9898;SDS011;4988;49.238;6.698;2022-10-17T02:19:11;16.77;;;7.47;;
9898;SDS011;4988;49.238;6.698;2022-10-17T02:21:51;16.07;;;7.30;;
9898;SDS011;4988;49.238;6.698;2022-10-17T02:24:28;16.90;;;7.93;;
9898;SDS011;4988;49.238;6.698;2022-10-17T02:27:05;12.57;;;7.30;;
9898;SDS011;4988;49.238;6.698;2022-10-17T02:29:38;19.07;;;7.70;;
9898;SDS011;4988;49.238;6.698;2022-10-17T02:32:13;14.13;;;7.60;;
9898;SDS011;4988;49.238;6.698;2022-10-17T02:34:46;17.50;;;7.30;;
9898;SDS011;4988;49.238;6.698;2022-10-17T02:37:15;20.47;;;7.77;;
9898;SDS011;4988;49.238;6.698;2022-10-17T02:39:46;17.57;;;7.40;;
9898;SDS011;4988;49.238;6.698;2022-10-17T02:42:14;12.83;;;7.00;;
9898;SDS011;4988;49.238;6.698;2022-10-17T02:44:42;13.47;;;6.40;;
9898;SDS011;4988;49.238;6.698;2022-10-17T02:47:22;15.63;;;6.80;;
9898;SDS011;4988;49.238;6.698;2022-10-17T02:49:56;13.17;;;7.40;;
9898;SDS011;4988;49.238;6.698;2022-10-17T02:52:33;23.27;;;7.70;;
9898;SDS011;4988;49.238;6.698;2022-10-17T02:55:05;11.13;;;7.10;;
9898;SDS011;4988;49.238;6.698;2022-10-17T02:57:55;17.60;;;7.10;;
9898;SDS011;4988;49.238;6.698;2022-10-17T03:00:24;15.17;;;7.40;;
9898;SDS011;4988;49.238;6.698;2022-10-17T03:02:51;21.57;;;8.03;;
9898;SDS011;4988;49.238;6.698;2022-10-17T03:05:20;14.90;;;7.10;;
9898;SDS011;4988;49.238;6.698;2022-10-17T03:07:50;14.63;;;7.07;;
9898;SDS011;4988;49.238;6.698;2022-10-17T03:10:17;16.37;;;7.60;;
9898;SDS011;4988;49.238;6.698;2022-10-17T03:12:42;21.97;;;7.43;;
9898;SDS011;4988;49.238;6.698;2022-10-17T03:15:08;12.60;;;7.17;;
9898;SDS011;4988;49.238;6.698;2022-10-17T03:17:34;15.63;;;7.20;;
9898;SDS011;4988;49.238;6.698;2022-10-17T03:20:00;15.50;;;7.60;;
9898;SDS011;4988;49.238;6.698;2022-10-17T03:22:25;17.97;;;7.37;;
9898;SDS011;4988;49.238;6.698;2022-10-17T03:24:51;12.47;;;6.87;;
9898;SDS011;4988;49.238;6.698;2022-10-17T03:27:16;13.50;;;7.40;;
9898;SDS011;4988;49.238;6.698;2022-10-17T03:29:41;18.03;;;7.30;;
9898;SDS011;4988;49.238;6.698;2022-10-17T03:32:07;13.67;;;7.33;;
9898;SDS011;4988;49.238;6.698;2022-10-17T03:34:32;15.00;;;7.00;;
9898;SDS011;4988;49.238;6.698;2022-10-17T03:36:58;12.23;;;7.27;;
9898;SDS011;4988;49.238;6.698;2022-10-17T03:39:23;16.43;;;7.23;;
9898;SDS011;4988;49.238;6.698;2022-10-17T03:41:49;13.67;;;6.97;;
9898;SDS011;4988;49.238;6.698;2022-10-17T03:44:14;11.60;;;6.53;;
9898;SDS011;4988;49.238;6.698;2022-10-17T03:46:39;12.53;;;6.90;;
9898;SDS011;4988;49.238;6.698;2022-10-17T03:49:05;15.53;;;7.57;;
9898;SDS011;4988;49.238;6.698;2022-10-17T03:51:31;14.30;;;7.60;;
9898;SDS011;4988;49.238;6.698;2022-10-17T03:53:57;12.10;;;7.17;;
9898;SDS011;4988;49.238;6.698;2022-10-17T03:56:23;11.43;;;7.23;;
9898;SDS011;4988;49.238;6.698;2022-10-17T03:58:49;10.87;;;6.80;;
9898;SDS011;4988;49.238;6.698;2022-10-17T04:01:15;13.10;;;7.10;;
9898;SDS011;4988;49.238;6.698;2022-10-17T04:03:42;14.77;;;7.30;;
9898;SDS011;4988;49.238;6.698;2022-10-17T04:06:09;12.30;;;7.00;;
9898;SDS011;4988;49.238;6.698;2022-10-17T04:08:36;12.63;;;7.23;;
9898;SDS011;4988;49.238;6.698;2022-10-17T04:11:03;17.13;;;7.40;;
9898;SDS011;4988;49.238;6.698;2022-10-17T04:13:31;13.60;;;7.13;;
9898;SDS011;4988;49.238;6.698;2022-10-17T04:15:57;13.10;;;7.90;;
9898;SDS011;4988;49.238;6.698;2022-10-17T04:18:28;16.47;;;8.20;;
9898;SDS011;4988;49.238;6.698;2022-10-17T04:20:54;17.13;;;8.10;;
9898;SDS011;4988;49.238;6.698;2022-10-17T04:23:19;11.33;;;7.87;;
9898;SDS011;4988;49.238;6.698;2022-10-17T04:25:45;19.87;;;8.50;;
9898;SDS011;4988;49.238;6.698;2022-10-17T04:28:10;11.20;;;7.73;;
9898;SDS011;4988;49.238;6.698;2022-10-17T04:30:36;14.47;;;7.60;;
9898;SDS011;4988;49.238;6.698;2022-10-17T04:33:02;15.67;;;7.37;;
9898;SDS011;4988;49.238;6.698;2022-10-17T04:35:27;10.80;;;7.10;;
9898;SDS011;4988;49.238;6.698;2022-10-17T04:37:52;10.70;;;7.30;;
9898;SDS011;4988;49.238;6.698;2022-10-17T04:40:19;14.00;;;8.30;;
9898;SDS011;4988;49.238;6.698;2022-10-17T04:42:45;15.33;;;8.40;;
9898;SDS011;4988;49.238;6.698;2022-10-17T04:45:10;15.70;;;8.93;;
9898;SDS011;4988;49.238;6.698;2022-10-17T04:47:36;11.50;;;7.60;;
9898;SDS011;4988;49.238;6.698;2022-10-17T04:50:02;16.00;;;8.23;;
9898;SDS011;4988;49.238;6.698;2022-10-17T04:52:28;10.87;;;7.67;;
9898;SDS011;4988;49.238;6.698;2022-10-17T04:54:53;9.90;;;7.50;;
9898;SDS011;4988;49.238;6.698;2022-10-17T04:57:19;12.27;;;7.60;;
9898;SDS011;4988;49.238;6.698;2022-10-17T04:59:44;10.83;;;7.70;;
9898;SDS011;4988;49.238;6.698;2022-10-17T05:02:09;17.37;;;7.80;;
9898;SDS011;4988;49.238;6.698;2022-10-17T05:04:35;14.00;;;7.30;;
9898;SDS011;4988;49.238;6.698;2022-10-17T05:07:00;14.47;;;6.70;;
9898;SDS011;4988;49.238;6.698;2022-10-17T05:09:26;15.53;;;7.50;;
9898;SDS011;4988;49.238;6.698;2022-10-17T05:11:52;18.20;;;7.17;;
9898;SDS011;4988;49.238;6.698;2022-10-17T05:14:17;18.63;;;7.93;;
9898;SDS011;4988;49.238;6.698;2022-10-17T05:16:42;14.70;;;8.03;;
9898;SDS011;4988;49.238;6.698;2022-10-17T05:19:08;14.63;;;7.87;;
9898;SDS011;4988;49.238;6.698;2022-10-17T05:21:33;14.70;;;7.43;;
9898;SDS011;4988;49.238;6.698;2022-10-17T05:23:59;13.03;;;7.27;;
9898;SDS011;4988;49.238;6.698;2022-10-17T05:26:24;12.33;;;7.43;;
9898;SDS011;4988;49.238;6.698;2022-10-17T05:28:50;14.20;;;8.57;;
9898;SDS011;4988;49.238;6.698;2022-10-17T05:31:16;20.80;;;8.17;;
9898;SDS011;4988;49.238;6.698;2022-10-17T05:33:42;12.70;;;8.27;;
9898;SDS011;4988;49.238;6.698;2022-10-17T05:36:08;14.00;;;8.30;;
9898;SDS011;4988;49.238;6.698;2022-10-17T05:38:34;15.43;;;8.20;;
9898;SDS011;4988;49.238;6.698;2022-10-17T05:41:00;14.97;;;8.47;;
9898;SDS011;4988;49.238;6.698;2022-10-17T05:43:27;14.10;;;8.37;;
9898;SDS011;4988;49.238;6.698;2022-10-17T05:45:54;17.53;;;8.10;;
9898;SDS011;4988;49.238;6.698;2022-10-17T05:48:20;13.80;;;7.87;;
9898;SDS011;4988;49.238;6.698;2022-10-17T05:50:46;16.03;;;8.27;;
9898;SDS011;4988;49.238;6.698;2022-10-17T05:53:12;19.40;;;7.97;;
9898;SDS011;4988;49.238;6.698;2022-10-17T05:55:37;15.53;;;7.83;;
9898;SDS011;4988;49.238;6.698;2022-10-17T05:58:03;16.13;;;8.17;;
9898;SDS011;4988;49.238;6.698;2022-10-17T06:00:28;12.23;;;8.03;;
9898;SDS011;4988;49.238;6.698;2022-10-17T06:02:53;12.87;;;7.97;;
9898;SDS011;4988;49.238;6.698;2022-10-17T06:05:19;13.80;;;8.00;;
9898;SDS011;4988;49.238;6.698;2022-10-17T06:07:45;15.37;;;8.43;;
9898;SDS011;4988;49.238;6.698;2022-10-17T06:10:10;12.33;;;8.07;;
9898;SDS011;4988;49.238;6.698;2022-10-17T06:12:37;15.73;;;7.80;;
9898;SDS011;4988;49.238;6.698;2022-10-17T06:15:03;19.97;;;8.13;;
9898;SDS011;4988;49.238;6.698;2022-10-17T06:17:29;14.90;;;7.97;;
9898;SDS011;4988;49.238;6.698;2022-10-17T06:19:54;20.03;;;8.23;;
9898;SDS011;4988;49.238;6.698;2022-10-17T06:22:21;11.97;;;8.03;;
9898;SDS011;4988;49.238;6.698;2022-10-17T06:24:46;13.93;;;8.13;;
9898;SDS011;4988;49.238;6.698;2022-10-17T06:27:11;14.07;;;9.20;;
9898;SDS011;4988;49.238;6.698;2022-10-17T06:29:37;11.90;;;8.60;;
9898;SDS011;4988;49.238;6.698;2022-10-17T06:32:02;13.67;;;8.40;;
9898;SDS011;4988;49.238;6.698;2022-10-17T06:34:27;12.53;;;8.03;;
9898;SDS011;4988;49.238;6.698;2022-10-17T06:36:53;18.20;;;9.03;;
9898;SDS011;4988;49.238;6.698;2022-10-17T06:39:18;15.87;;;8.67;;
9898;SDS011;4988;49.238;6.698;2022-10-17T06:41:44;13.87;;;8.53;;
9898;SDS011;4988;49.238;6.698;2022-10-17T06:44:09;15.63;;;9.27;;
9898;SDS011;4988;49.238;6.698;2022-10-17T06:46:36;13.43;;;8.70;;
9898;SDS011;4988;49.238;6.698;2022-10-17T06:49:02;15.27;;;9.10;;
9898;SDS011;4988;49.238;6.698;2022-10-17T06:51:28;16.47;;;9.03;;
9898;SDS011;4988;49.238;6.698;2022-10-17T06:53:55;15.00;;;8.60;;
9898;SDS011;4988;49.238;6.698;2022-10-17T06:56:22;15.50;;;9.57;;
9898;SDS011;4988;49.238;6.698;2022-10-17T06:58:47;16.47;;;9.27;;
9898;SDS011;4988;49.238;6.698;2022-10-17T07:01:14;11.80;;;8.30;;
9898;SDS011;4988;49.238;6.698;2022-10-17T07:03:40;14.43;;;8.43;;
9898;SDS011;4988;49.238;6.698;2022-10-17T07:06:05;14.67;;;8.27;;
9898;SDS011;4988;49.238;6.698;2022-10-17T07:08:31;16.50;;;8.87;;
9898;SDS011;4988;49.238;6.698;2022-10-17T07:10:57;15.20;;;9.30;;
9898;SDS011;4988;49.238;6.698;2022-10-17T07:13:22;13.97;;;9.20;;
9898;SDS011;4988;49.238;6.698;2022-10-17T07:15:47;13.83;;;9.00;;
9898;SDS011;4988;49.238;6.698;2022-10-17T07:18:14;14.37;;;9.30;;
9898;SDS011;4988;49.238;6.698;2022-10-17T07:20:39;13.53;;;9.77;;
9898;SDS011;4988;49.238;6.698;2022-10-17T07:23:05;17.70;;;10.10;;
9898;SDS011;4988;49.238;6.698;2022-10-17T07:25:31;15.33;;;9.03;;
9898;SDS011;4988;49.238;6.698;2022-10-17T07:27:56;18.60;;;9.80;;
9898;SDS011;4988;49.238;6.698;2022-10-17T07:30:22;17.23;;;9.70;;
9898;SDS011;4988;49.238;6.698;2022-10-17T07:32:47;18.13;;;9.77;;
9898;SDS011;4988;49.238;6.698;2022-10-17T07:35:13;17.77;;;9.70;;
9898;SDS011;4988;49.238;6.698;2022-10-17T07:37:38;17.27;;;9.80;;
9898;SDS011;4988;49.238;6.698;2022-10-17T07:40:04;21.57;;;10.07;;
9898;SDS011;4988;49.238;6.698;2022-10-17T07:42:37;19.03;;;10.73;;
9898;SDS011;4988;49.238;6.698;2022-10-17T07:45:04;14.83;;;9.90;;
9898;SDS011;4988;49.238;6.698;2022-10-17T07:47:30;18.40;;;10.33;;
9898;SDS011;4988;49.238;6.698;2022-10-17T07:49:59;26.83;;;11.30;;
9898;SDS011;4988;49.238;6.698;2022-10-17T07:52:24;19.13;;;10.20;;
9898;SDS011;4988;49.238;6.698;2022-10-17T07:54:50;21.63;;;9.57;;
9898;SDS011;4988;49.238;6.698;2022-10-17T07:57:15;17.80;;;9.67;;
9898;SDS011;4988;49.238;6.698;2022-10-17T07:59:40;18.87;;;9.57;;
9898;SDS011;4988;49.238;6.698;2022-10-17T08:02:06;17.83;;;9.47;;
9898;SDS011;4988;49.238;6.698;2022-10-17T08:04:41;14.70;;;8.13;;
9898;SDS011;4988;49.238;6.698;2022-10-17T08:07:07;14.70;;;8.17;;
9898;SDS011;4988;49.238;6.698;2022-10-17T08:09:32;13.00;;;7.87;;
9898;SDS011;4988;49.238;6.698;2022-10-17T08:11:57;10.33;;;7.50;;
9898;SDS011;4988;49.238;6.698;2022-10-17T08:14:23;15.27;;;7.20;;
9898;SDS011;4988;49.238;6.698;2022-10-17T08:16:48;12.63;;;6.37;;
9898;SDS011;4988;49.238;6.698;2022-10-17T08:19:13;14.93;;;6.60;;
9898;SDS011;4988;49.238;6.698;2022-10-17T08:21:38;11.70;;;7.00;;
9898;SDS011;4988;49.238;6.698;2022-10-17T08:24:05;13.13;;;6.17;;
9898;SDS011;4988;49.238;6.698;2022-10-17T08:26:30;11.33;;;6.20;;
9898;SDS011;4988;49.238;6.698;2022-10-17T08:28:56;13.87;;;5.93;;
9898;SDS011;4988;49.238;6.698;2022-10-17T08:31:21;7.90;;;5.40;;
9898;SDS011;4988;49.238;6.698;2022-10-17T08:33:47;10.80;;;5.23;;
9898;SDS011;4988;49.238;6.698;2022-10-17T08:36:15;11.87;;;5.63;;
9898;SDS011;4988;49.238;6.698;2022-10-17T08:38:42;12.43;;;5.80;;
9898;SDS011;4988;49.238;6.698;2022-10-17T08:44:09;7.00;;;4.87;;
9898;SDS011;4988;49.238;6.698;2022-10-17T08:46:40;12.03;;;5.37;;
9898;SDS011;4988;49.238;6.698;2022-10-17T08:49:23;9.80;;;5.33;;
9898;SDS011;4988;49.238;6.698;2022-10-17T08:51:58;9.13;;;4.80;;
9898;SDS011;4988;49.238;6.698;2022-10-17T08:54:40;9.43;;;4.63;;
9898;SDS011;4988;49.238;6.698;2022-10-17T08:57:10;7.63;;;4.90;;
9898;SDS011;4988;49.238;6.698;2022-10-17T08:59:40;8.43;;;4.40;;
9898;SDS011;4988;49.238;6.698;2022-10-17T09:19:32;8.33;;;4.23;;
9898;SDS011;4988;49.238;6.698;2022-10-17T09:24:42;14.13;;;4.27;;
9898;SDS011;4988;49.238;6.698;2022-10-17T09:30:14;6.30;;;3.83;;
9898;SDS011;4988;49.238;6.698;2022-10-17T09:32:43;9.87;;;4.20;;
9898;SDS011;4988;49.238;6.698;2022-10-17T09:35:12;8.63;;;3.67;;
9898;SDS011;4988;49.238;6.698;2022-10-17T09:37:38;6.63;;;4.20;;
9898;SDS011;4988;49.238;6.698;2022-10-17T09:40:05;7.73;;;3.77;;
9898;SDS011;4988;49.238;6.698;2022-10-17T09:42:36;12.63;;;4.00;;
9898;SDS011;4988;49.238;6.698;2022-10-17T09:47:38;11.70;;;3.60;;
9898;SDS011;4988;49.238;6.698;2022-10-17T09:50:29;4.23;;;3.47;;
9898;SDS011;4988;49.238;6.698;2022-10-17T09:52:54;6.33;;;3.73;;
9898;SDS011;4988;49.238;6.698;2022-10-17T09:55:30;10.13;;;3.40;;
9898;SDS011;4988;49.238;6.698;2022-10-17T09:58:08;6.90;;;3.47;;
9898;SDS011;4988;49.238;6.698;2022-10-17T10:00:36;12.23;;;4.43;;
9898;SDS011;4988;49.238;6.698;2022-10-17T10:03:17;11.33;;;3.50;;
9898;SDS011;4988;49.238;6.698;2022-10-17T10:06:06;6.53;;;3.70;;
9898;SDS011;4988;49.238;6.698;2022-10-17T10:08:31;7.53;;;3.10;;
9898;SDS011;4988;49.238;6.698;2022-10-17T10:11:06;5.93;;;3.23;;
9898;SDS011;4988;49.238;6.698;2022-10-17T10:13:33;8.00;;;3.23;;
9898;SDS011;4988;49.238;6.698;2022-10-17T10:16:12;9.40;;;3.50;;
9898;SDS011;4988;49.238;6.698;2022-10-17T10:18:44;7.07;;;3.60;;
9898;SDS011;4988;49.238;6.698;2022-10-17T10:21:23;7.33;;;3.40;;
9898;SDS011;4988;49.238;6.698;2022-10-17T10:24:04;6.00;;;3.10;;
9898;SDS011;4988;49.238;6.698;2022-10-17T10:26:40;7.00;;;3.37;;
9898;SDS011;4988;49.238;6.698;2022-10-17T10:29:19;12.07;;;3.30;;
9898;SDS011;4988;49.238;6.698;2022-10-17T10:31:47;7.07;;;3.50;;
9898;SDS011;4988;49.238;6.698;2022-10-17T10:34:19;7.53;;;3.67;;
9898;SDS011;4988;49.238;6.698;2022-10-17T10:39:24;7.57;;;3.70;;
9898;SDS011;4988;49.238;6.698;2022-10-17T10:41:54;6.57;;;3.00;;
9898;SDS011;4988;49.238;6.698;2022-10-17T10:44:20;5.60;;;3.30;;
9898;SDS011;4988;49.238;6.698;2022-10-17T10:47:04;9.00;;;3.87;;
9898;SDS011;4988;49.238;6.698;2022-10-17T10:49:41;6.40;;;3.40;;
9898;SDS011;4988;49.238;6.698;2022-10-17T10:52:07;12.23;;;3.43;;
9898;SDS011;4988;49.238;6.698;2022-10-17T10:54:41;10.83;;;3.37;;
9898;SDS011;4988;49.238;6.698;2022-10-17T10:57:16;6.77;;;3.40;;
9898;SDS011;4988;49.238;6.698;2022-10-17T11:05:19;12.20;;;3.60;;
9898;SDS011;4988;49.238;6.698;2022-10-17T11:08:08;8.87;;;3.80;;
9898;SDS011;4988;49.238;6.698;2022-10-17T11:14:04;10.87;;;3.67;;
9898;SDS011;4988;49.238;6.698;2022-10-17T11:22:02;11.57;;;3.53;;
9898;SDS011;4988;49.238;6.698;2022-10-17T11:24:43;7.17;;;3.80;;
9898;SDS011;4988;49.238;6.698;2022-10-17T11:27:14;5.17;;;3.17;;
9898;SDS011;4988;49.238;6.698;2022-10-17T11:29:40;13.57;;;3.50;;
9898;SDS011;4988;49.238;6.698;2022-10-17T11:32:10;9.43;;;3.23;;
9898;SDS011;4988;49.238;6.698;2022-10-17T11:34:40;8.10;;;3.50;;
9898;SDS011;4988;49.238;6.698;2022-10-17T11:37:14;8.13;;;3.47;;
9898;SDS011;4988;49.238;6.698;2022-10-17T11:42:38;10.30;;;3.63;;
9898;SDS011;4988;49.238;6.698;2022-10-17T11:45:25;9.93;;;3.60;;
9898;SDS011;4988;49.238;6.698;2022-10-17T11:51:07;7.57;;;3.30;;
9898;SDS011;4988;49.238;6.698;2022-10-17T11:53:45;8.33;;;3.30;;
9898;SDS011;4988;49.238;6.698;2022-10-17T11:56:13;8.53;;;3.40;;
9898;SDS011;4988;49.238;6.698;2022-10-17T12:01:45;6.87;;;3.23;;
9898;SDS011;4988;49.238;6.698;2022-10-17T12:07:19;6.73;;;3.47;;
9898;SDS011;4988;49.238;6.698;2022-10-17T12:10:02;11.30;;;3.43;;
9898;SDS011;4988;49.238;6.698;2022-10-17T12:12:40;7.77;;;2.93;;
9898;SDS011;4988;49.238;6.698;2022-10-17T12:17:43;9.40;;;3.30;;
9898;SDS011;4988;49.238;6.698;2022-10-17T12:22:47;9.73;;;3.57;;
9898;SDS011;4988;49.238;6.698;2022-10-17T12:31:08;8.73;;;3.30;;
9898;SDS011;4988;49.238;6.698;2022-10-17T12:46:55;5.83;;;2.90;;
9898;SDS011;4988;49.238;6.698;2022-10-17T12:49:39;8.53;;;3.50;;
9898;SDS011;4988;49.238;6.698;2022-10-17T12:54:51;7.70;;;3.20;;
9898;SDS011;4988;49.238;6.698;2022-10-17T12:57:21;6.53;;;3.10;;
9898;SDS011;4988;49.238;6.698;2022-10-17T12:59:49;6.77;;;3.07;;
9898;SDS011;4988;49.238;6.698;2022-10-17T13:02:18;7.43;;;3.30;;
9898;SDS011;4988;49.238;6.698;2022-10-17T13:04:45;6.63;;;2.80;;
9898;SDS011;4988;49.238;6.698;2022-10-17T13:07:22;7.53;;;3.00;;
9898;SDS011;4988;49.238;6.698;2022-10-17T13:09:47;8.80;;;3.27;;
9898;SDS011;4988;49.238;6.698;2022-10-17T13:12:17;5.80;;;3.27;;
9898;SDS011;4988;49.238;6.698;2022-10-17T13:14:50;7.00;;;3.17;;
9898;SDS011;4988;49.238;6.698;2022-10-17T13:17:27;9.40;;;3.60;;
9898;SDS011;4988;49.238;6.698;2022-10-17T13:19:55;8.03;;;3.20;;
9898;SDS011;4988;49.238;6.698;2022-10-17T13:22:22;5.70;;;3.07;;
9898;SDS011;4988;49.238;6.698;2022-10-17T13:25:03;10.77;;;3.37;;
9898;SDS011;4988;49.238;6.698;2022-10-17T13:27:32;8.50;;;3.20;;
9898;SDS011;4988;49.238;6.698;2022-10-17T13:30:00;7.80;;;3.13;;
9898;SDS011;4988;49.238;6.698;2022-10-17T13:32:34;8.47;;;3.17;;
9898;SDS011;4988;49.238;6.698;2022-10-17T13:35:09;7.03;;;3.10;;
9898;SDS011;4988;49.238;6.698;2022-10-17T13:37:41;7.47;;;2.87;;
9898;SDS011;4988;49.238;6.698;2022-10-17T13:40:19;7.97;;;3.20;;
9898;SDS011;4988;49.238;6.698;2022-10-17T13:42:47;10.73;;;3.43;;
9898;SDS011;4988;49.238;6.698;2022-10-17T13:47:55;7.30;;;3.10;;
9898;SDS011;4988;49.238;6.698;2022-10-17T13:50:24;6.90;;;2.90;;
9898;SDS011;4988;49.238;6.698;2022-10-17T13:53:05;9.13;;;3.10;;
9898;SDS011;4988;49.238;6.698;2022-10-17T13:55:52;9.73;;;2.83;;
9898;SDS011;4988;49.238;6.698;2022-10-17T13:58:19;9.43;;;3.30;;
9898;SDS011;4988;49.238;6.698;2022-10-17T14:00:44;9.50;;;2.93;;
9898;SDS011;4988;49.238;6.698;2022-10-17T14:03:13;8.07;;;2.77;;
9898;SDS011;4988;49.238;6.698;2022-10-17T14:08:59;9.50;;;3.00;;
9898;SDS011;4988;49.238;6.698;2022-10-17T14:11:29;7.13;;;3.23;;
9898;SDS011;4988;49.238;6.698;2022-10-17T14:13:57;9.30;;;3.07;;
9898;SDS011;4988;49.238;6.698;2022-10-17T14:16:25;11.57;;;3.30;;
9898;SDS011;4988;49.238;6.698;2022-10-17T14:18:57;10.70;;;3.07;;
9898;SDS011;4988;49.238;6.698;2022-10-17T14:21:24;8.03;;;2.70;;
9898;SDS011;4988;49.238;6.698;2022-10-17T14:24:10;8.07;;;2.80;;
9898;SDS011;4988;49.238;6.698;2022-10-17T14:26:51;8.60;;;2.80;;
9898;SDS011;4988;49.238;6.698;2022-10-17T14:32:01;6.67;;;3.30;;
9898;SDS011;4988;49.238;6.698;2022-10-17T14:34:30;10.70;;;3.63;;
9898;SDS011;4988;49.238;6.698;2022-10-17T14:36:58;9.43;;;3.70;;
9898;SDS011;4988;49.238;6.698;2022-10-17T14:39:24;7.23;;;3.00;;
9898;SDS011;4988;49.238;6.698;2022-10-17T14:41:51;7.37;;;3.50;;
9898;SDS011;4988;49.238;6.698;2022-10-17T14:46:58;9.17;;;3.27;;
9898;SDS011;4988;49.238;6.698;2022-10-17T14:54:42;8.07;;;3.10;;
9898;SDS011;4988;49.238;6.698;2022-10-17T14:57:14;7.90;;;3.40;;
9898;SDS011;4988;49.238;6.698;2022-10-17T14:59:42;7.77;;;3.03;;
9898;SDS011;4988;49.238;6.698;2022-10-17T15:02:07;8.43;;;3.57;;
9898;SDS011;4988;49.238;6.698;2022-10-17T15:04:33;6.30;;;3.00;;
9898;SDS011;4988;49.238;6.698;2022-10-17T15:06:58;11.63;;;3.50;;
9898;SDS011;4988;49.238;6.698;2022-10-17T15:09:24;9.00;;;3.43;;
9898;SDS011;4988;49.238;6.698;2022-10-17T15:11:52;7.47;;;3.53;;
9898;SDS011;4988;49.238;6.698;2022-10-17T15:14:17;6.93;;;3.50;;
9898;SDS011;4988;49.238;6.698;2022-10-17T15:16:43;9.23;;;3.23;;
9898;SDS011;4988;49.238;6.698;2022-10-17T15:19:08;6.10;;;3.13;;
9898;SDS011;4988;49.238;6.698;2022-10-17T15:21:36;8.87;;;3.63;;
9898;SDS011;4988;49.238;6.698;2022-10-17T15:24:01;11.13;;;3.10;;
9898;SDS011;4988;49.238;6.698;2022-10-17T15:26:29;7.87;;;3.50;;
9898;SDS011;4988;49.238;6.698;2022-10-17T15:28:56;12.63;;;3.43;;
9898;SDS011;4988;49.238;6.698;2022-10-17T15:31:23;12.13;;;3.70;;
9898;SDS011;4988;49.238;6.698;2022-10-17T15:33:49;8.37;;;3.53;;
9898;SDS011;4988;49.238;6.698;2022-10-17T15:36:25;6.60;;;3.20;;
9898;SDS011;4988;49.238;6.698;2022-10-17T15:38:52;8.07;;;3.27;;
9898;SDS011;4988;49.238;6.698;2022-10-17T15:41:22;8.67;;;4.43;;
9898;SDS011;4988;49.238;6.698;2022-10-17T15:43:49;14.90;;;6.27;;
9898;SDS011;4988;49.238;6.698;2022-10-17T15:46:23;10.80;;;6.20;;
9898;SDS011;4988;49.238;6.698;2022-10-17T15:48:54;8.97;;;4.93;;
9898;SDS011;4988;49.238;6.698;2022-10-17T15:51:21;15.17;;;4.50;;
9898;SDS011;4988;49.238;6.698;2022-10-17T15:53:47;11.17;;;4.47;;
9898;SDS011;4988;49.238;6.698;2022-10-17T15:56:23;10.47;;;4.57;;
9898;SDS011;4988;49.238;6.698;2022-10-17T15:58:52;9.17;;;4.43;;
9898;SDS011;4988;49.238;6.698;2022-10-17T16:01:19;8.53;;;4.27;;
9898;SDS011;4988;49.238;6.698;2022-10-17T16:03:47;7.20;;;4.40;;
9898;SDS011;4988;49.238;6.698;2022-10-17T16:06:14;11.60;;;5.33;;
9898;SDS011;4988;49.238;6.698;2022-10-17T16:08:40;7.93;;;5.37;;
9898;SDS011;4988;49.238;6.698;2022-10-17T16:11:05;12.77;;;6.53;;
9898;SDS011;4988;49.238;6.698;2022-10-17T16:13:30;11.53;;;6.20;;
9898;SDS011;4988;49.238;6.698;2022-10-17T16:15:56;15.17;;;5.50;;
9898;SDS011;4988;49.238;6.698;2022-10-17T16:18:21;12.07;;;5.47;;
9898;SDS011;4988;49.238;6.698;2022-10-17T16:20:46;11.63;;;5.87;;
9898;SDS011;4988;49.238;6.698;2022-10-17T16:23:12;16.77;;;6.93;;
9898;SDS011;4988;49.238;6.698;2022-10-17T16:25:38;14.77;;;6.20;;
9898;SDS011;4988;49.238;6.698;2022-10-17T16:28:04;15.20;;;5.60;;
9898;SDS011;4988;49.238;6.698;2022-10-17T16:30:32;17.27;;;5.37;;
9898;SDS011;4988;49.238;6.698;2022-10-17T16:33:02;11.70;;;5.33;;
9898;SDS011;4988;49.238;6.698;2022-10-17T16:35:28;14.03;;;5.53;;
9898;SDS011;4988;49.238;6.698;2022-10-17T16:37:54;10.33;;;5.27;;
9898;SDS011;4988;49.238;6.698;2022-10-17T16:40:21;16.90;;;8.33;;
9898;SDS011;4988;49.238;6.698;2022-10-17T16:42:47;11.37;;;5.57;;
9898;SDS011;4988;49.238;6.698;2022-10-17T16:45:17;13.07;;;5.10;;
9898;SDS011;4988;49.238;6.698;2022-10-17T16:47:45;10.23;;;5.13;;
9898;SDS011;4988;49.238;6.698;2022-10-17T16:50:10;10.27;;;5.23;;
9898;SDS011;4988;49.238;6.698;2022-10-17T16:52:36;9.33;;;4.90;;
9898;SDS011;4988;49.238;6.698;2022-10-17T16:55:02;9.47;;;5.30;;
9898;SDS011;4988;49.238;6.698;2022-10-17T16:57:28;12.53;;;5.17;;
9898;SDS011;4988;49.238;6.698;2022-10-17T16:59:53;9.37;;;5.23;;
9898;SDS011;4988;49.238;6.698;2022-10-17T17:02:31;12.23;;;4.93;;
9898;SDS011;4988;49.238;6.698;2022-10-17T17:04:58;9.93;;;4.90;;
9898;SDS011;4988;49.238;6.698;2022-10-17T17:07:26;9.83;;;4.70;;
9898;SDS011;4988;49.238;6.698;2022-10-17T17:09:56;9.90;;;5.03;;
9898;SDS011;4988;49.238;6.698;2022-10-17T17:12:22;9.80;;;4.80;;
9898;SDS011;4988;49.238;6.698;2022-10-17T17:14:47;13.73;;;5.20;;
9898;SDS011;4988;49.238;6.698;2022-10-17T17:17:13;12.23;;;6.00;;
9898;SDS011;4988;49.238;6.698;2022-10-17T17:19:38;12.77;;;6.50;;